createdAt,value
2023-05-15T00:00:11.294Z,29.41
2023-05-15T00:01:11.320Z,28.02
2023-05-15T00:02:11.424Z,28.97
2023-05-15T00:03:11.528Z,29.75
2023-05-15T00:04:11.485Z,32.60
2023-05-15T00:05:11.606Z,28.67
2023-05-15T00:06:11.555Z,28.77
2023-05-15T00:07:11.619Z,29.17
2023-05-15T00:08:11.636Z,30.29
2023-05-15T00:09:11.678Z,31.83
2023-05-15T00:10:11.724Z,30.02
2023-05-15T00:11:11.790Z,27.82
2023-05-15T00:12:11.807Z,28.46
2023-05-15T00:13:11.846Z,26.94
2023-05-15T00:14:11.900Z,30.38
2023-05-15T00:15:11.945Z,29.25
2023-05-15T00:16:12.154Z,31.42
2023-05-15T00:17:12.018Z,30.84
2023-05-15T00:18:12.121Z,28.26
2023-05-15T00:19:12.195Z,28.11
2023-05-15T00:20:12.136Z,29.68
2023-05-15T00:21:12.212Z,28.90
2023-05-15T00:22:12.229Z,32.87
2023-05-15T00:23:12.273Z,31.75
2023-05-15T00:24:12.305Z,31.07
2023-05-15T00:25:12.342Z,29.72
2023-05-15T00:26:12.401Z,27.43
2023-05-15T00:27:12.445Z,29.75
2023-05-15T00:28:12.480Z,30.46
2023-05-15T00:29:12.535Z,28.92
2023-05-15T00:30:12.602Z,30.61
2023-05-15T00:31:12.666Z,29.99
2023-05-15T00:32:12.667Z,30.90
2023-05-15T00:33:12.714Z,26.88
2023-05-15T00:34:12.756Z,29.21
2023-05-15T00:35:12.815Z,31.20
2023-05-15T00:36:12.846Z,29.05
2023-05-15T00:37:12.907Z,30.20
2023-05-15T00:38:12.957Z,30.95
2023-05-15T00:39:13.019Z,28.12
2023-05-15T00:40:13.029Z,28.07
2023-05-15T00:41:13.078Z,30.30
2023-05-15T00:42:13.156Z,27.83
2023-05-15T00:43:13.179Z,30.10
2023-05-15T00:44:13.233Z,31.09
2023-05-15T00:45:13.267Z,29.06
2023-05-15T00:46:13.337Z,28.78
2023-05-15T00:47:13.460Z,27.48
2023-05-15T00:48:13.430Z,29.39
2023-05-15T00:49:13.502Z,31.69
2023-05-15T00:50:13.503Z,28.18
2023-05-15T00:51:13.563Z,28.43
2023-05-15T00:52:13.606Z,29.26
2023-05-15T00:53:13.634Z,30.37
2023-05-15T00:54:13.709Z,29.34
2023-05-15T00:55:13.736Z,29.40
2023-05-15T00:56:13.778Z,30.18
2023-05-15T00:57:13.858Z,26.52
2023-05-15T00:58:13.858Z,28.38
2023-05-15T00:59:13.916Z,29.17
2023-05-15T01:00:13.958Z,30.67
2023-05-15T01:01:14.159Z,28.36
2023-05-15T01:02:14.749Z,27.77
2023-05-15T01:03:14.282Z,29.16
2023-05-15T01:04:14.143Z,33.54
2023-05-15T01:05:14.205Z,34.89
2023-05-15T01:06:21.650Z,27.12
2023-05-15T01:07:14.265Z,27.58
2023-05-15T01:08:14.235Z,28.09
2023-05-15T01:09:14.224Z,28.88
2023-05-15T01:10:14.228Z,29.08
2023-05-15T01:11:14.663Z,32.33
2023-05-15T01:12:14.204Z,33.60
2023-05-15T01:13:14.196Z,32.96
2023-05-15T01:14:14.197Z,32.24
2023-05-15T01:15:14.174Z,30.54
2023-05-15T01:16:14.644Z,32.67
2023-05-15T01:17:14.166Z,28.14
2023-05-15T01:18:14.259Z,28.11
2023-05-15T01:19:14.245Z,28.70
2023-05-15T01:20:14.160Z,33.83
2023-05-15T01:21:14.137Z,29.38
2023-05-15T01:22:14.123Z,29.20
2023-05-15T01:23:14.119Z,28.62
2023-05-15T01:24:14.126Z,28.32
2023-05-15T01:25:14.105Z,31.33
2023-05-15T01:26:14.129Z,30.42
2023-05-15T01:27:14.162Z,32.00
2023-05-15T01:28:14.190Z,33.61
2023-05-15T01:29:14.254Z,29.14
2023-05-15T01:30:14.290Z,29.97
2023-05-15T01:31:14.341Z,29.46
2023-05-15T01:32:15.240Z,27.62
2023-05-15T01:33:14.478Z,27.37
2023-05-15T01:34:14.493Z,28.88
2023-05-15T01:35:14.533Z,29.71
2023-05-15T01:36:14.581Z,32.77
2023-05-15T01:37:14.631Z,27.81
2023-05-15T01:38:14.653Z,31.34
2023-05-15T01:39:14.698Z,30.50
2023-05-15T01:40:14.740Z,30.20
2023-05-15T01:41:14.804Z,29.07
2023-05-15T01:42:14.836Z,29.79
2023-05-15T01:43:14.884Z,29.71
2023-05-15T01:44:14.909Z,29.53
2023-05-15T01:45:14.977Z,28.48
2023-05-15T01:46:15.056Z,32.95
2023-05-15T01:47:15.090Z,29.98
2023-05-15T01:48:15.114Z,29.54
2023-05-15T01:49:15.154Z,30.41
2023-05-15T01:50:15.201Z,30.95
2023-05-15T01:51:15.264Z,29.05
2023-05-15T01:52:15.288Z,28.29
2023-05-15T01:53:15.336Z,30.01
2023-05-15T01:54:15.402Z,28.74
2023-05-15T01:55:15.435Z,32.48
2023-05-15T01:56:15.495Z,32.13
2023-05-15T01:57:15.533Z,30.97
2023-05-15T01:58:15.576Z,25.01
2023-05-15T01:59:15.636Z,27.37
2023-05-15T02:00:15.789Z,32.21
2023-05-15T02:01:15.802Z,31.59
2023-05-15T02:02:15.751Z,29.17
2023-05-15T02:03:15.903Z,30.39
2023-05-15T02:04:15.848Z,28.58
2023-05-15T02:05:15.896Z,31.99
2023-05-15T02:06:15.937Z,30.56
2023-05-15T02:07:15.987Z,29.42
2023-05-15T02:08:16.056Z,33.21
2023-05-15T02:09:16.074Z,29.98
2023-05-15T02:10:16.115Z,31.69
2023-05-15T02:11:16.165Z,30.32
2023-05-15T02:12:16.204Z,31.31
2023-05-15T02:13:16.246Z,30.15
2023-05-15T02:14:16.307Z,30.59
2023-05-15T02:15:16.350Z,28.15
2023-05-15T02:16:16.412Z,30.78
2023-05-15T02:17:16.422Z,30.22
2023-05-15T02:18:16.457Z,30.45
2023-05-15T02:19:16.544Z,26.54
2023-05-15T02:20:16.539Z,28.03
2023-05-15T02:21:16.584Z,30.31
2023-05-15T02:22:16.607Z,33.72
2023-05-15T02:23:16.662Z,28.35
2023-05-15T02:24:16.734Z,29.97
2023-05-15T02:25:16.750Z,27.48
2023-05-15T02:26:16.788Z,28.32
2023-05-15T02:27:16.827Z,28.46
2023-05-15T02:28:16.888Z,27.21
2023-05-15T02:29:16.930Z,26.33
2023-05-15T02:30:16.965Z,25.16
2023-05-15T02:31:17.042Z,33.93
2023-05-15T02:32:17.159Z,29.19
2023-05-15T02:33:17.075Z,27.64
2023-05-15T02:34:17.140Z,32.12
2023-05-15T02:35:17.173Z,29.20
2023-05-15T02:36:17.240Z,32.38
2023-05-15T02:37:17.265Z,29.72
2023-05-15T02:38:17.312Z,32.56
2023-05-15T02:39:17.346Z,28.68
2023-05-15T02:40:17.384Z,29.51
2023-05-15T02:41:17.446Z,32.68
2023-05-15T02:42:17.478Z,28.25
2023-05-15T02:43:17.525Z,29.58
2023-05-15T02:44:17.559Z,28.19
2023-05-15T02:45:17.590Z,31.30
2023-05-15T02:46:17.791Z,30.44
2023-05-15T02:47:17.673Z,28.40
2023-05-15T02:48:17.736Z,28.32
2023-05-15T02:49:17.759Z,27.66
2023-05-15T02:50:17.801Z,27.95
2023-05-15T02:51:17.853Z,31.14
2023-05-15T02:52:17.880Z,32.82
2023-05-15T02:53:17.935Z,29.00
2023-05-15T02:54:17.955Z,27.53
2023-05-15T02:55:18.017Z,28.59
2023-05-15T02:56:18.058Z,30.97
2023-05-15T02:57:18.104Z,28.09
2023-05-15T02:58:18.163Z,28.20
2023-05-15T02:59:18.194Z,30.50
2023-05-15T03:00:18.236Z,25.37
2023-05-15T03:01:18.317Z,25.95
2023-05-15T03:02:18.332Z,31.31
2023-05-15T03:03:18.365Z,28.53
2023-05-15T03:04:18.454Z,30.40
2023-05-15T03:05:18.448Z,30.51
2023-05-15T03:06:18.487Z,28.10
2023-05-15T03:07:18.549Z,29.24
2023-05-15T03:08:18.602Z,25.72
2023-05-15T03:09:18.615Z,29.99
2023-05-15T03:10:18.655Z,27.41
2023-05-15T03:11:18.718Z,29.46
2023-05-15T03:12:18.784Z,27.58
2023-05-15T03:13:18.811Z,28.36
2023-05-15T03:14:18.834Z,28.00
2023-05-15T03:15:18.886Z,30.30
2023-05-15T03:16:19.006Z,28.63
2023-05-15T03:17:18.970Z,25.77
2023-05-15T03:18:19.129Z,29.66
2023-05-15T03:19:19.092Z,27.90
2023-05-15T03:20:19.099Z,26.95
2023-05-15T03:21:19.161Z,32.28
2023-05-15T03:22:19.188Z,26.65
2023-05-15T03:23:19.217Z,30.54
2023-05-15T03:24:19.272Z,28.08
2023-05-15T03:25:19.317Z,31.67
2023-05-15T03:26:19.358Z,29.25
2023-05-15T03:27:19.396Z,25.66
2023-05-15T03:28:19.438Z,26.28
2023-05-15T03:29:19.504Z,28.66
2023-05-15T03:30:19.544Z,28.03
2023-05-15T03:31:19.674Z,26.12
2023-05-15T03:32:19.640Z,27.92
2023-05-15T03:33:19.675Z,27.85
2023-05-15T03:34:19.709Z,29.17
2023-05-15T03:35:19.787Z,33.01
2023-05-15T03:36:19.808Z,28.52
2023-05-15T03:37:19.846Z,28.79
2023-05-15T03:38:19.890Z,31.60
2023-05-15T03:39:19.945Z,26.52
2023-05-15T03:40:20.001Z,32.70
2023-05-15T03:41:20.070Z,27.14
2023-05-15T03:42:20.089Z,30.03
2023-05-15T03:43:20.146Z,30.67
2023-05-15T03:44:20.168Z,30.54
2023-05-15T03:45:20.241Z,27.15
2023-05-15T03:46:20.355Z,26.56
2023-05-15T03:47:20.318Z,30.24
2023-05-15T03:48:20.380Z,28.84
2023-05-15T03:49:20.392Z,29.73
2023-05-15T03:50:20.448Z,30.32
2023-05-15T03:51:20.497Z,30.96
2023-05-15T03:52:20.521Z,31.57
2023-05-15T03:53:20.574Z,31.77
2023-05-15T03:54:20.628Z,28.26
2023-05-15T03:55:20.682Z,28.61
2023-05-15T03:56:20.723Z,29.30
2023-05-15T03:57:20.755Z,31.23
2023-05-15T03:58:21.694Z,29.41
2023-05-15T03:59:20.855Z,31.06
2023-05-15T04:00:20.898Z,29.14
2023-05-15T04:01:20.950Z,31.24
2023-05-15T04:02:21.027Z,31.34
2023-05-15T04:03:21.083Z,29.17
2023-05-15T04:04:21.089Z,29.59
2023-05-15T04:05:21.232Z,30.07
2023-05-15T04:06:21.227Z,34.14
2023-05-15T04:07:21.243Z,29.91
2023-05-15T04:08:21.296Z,27.26
2023-05-15T04:09:21.337Z,31.28
2023-05-15T04:10:21.379Z,27.42
2023-05-15T04:11:21.432Z,30.02
2023-05-15T04:12:21.511Z,28.91
2023-05-15T04:13:21.519Z,27.46
2023-05-15T04:14:21.584Z,29.26
2023-05-15T04:15:21.722Z,29.37
2023-05-15T04:16:21.755Z,27.37
2023-05-15T04:17:21.844Z,27.57
2023-05-15T04:18:21.769Z,28.42
2023-05-15T04:19:21.868Z,31.13
2023-05-15T04:20:21.919Z,27.52
2023-05-15T04:21:21.925Z,28.21
2023-05-15T04:22:21.971Z,27.94
2023-05-15T04:23:22.006Z,30.63
2023-05-15T04:24:22.068Z,30.20
2023-05-15T04:25:22.334Z,29.00
2023-05-15T04:26:22.195Z,30.48
2023-05-15T04:27:22.193Z,27.43
2023-05-15T04:28:22.247Z,27.60
2023-05-15T04:29:22.305Z,31.37
2023-05-15T04:30:22.344Z,32.00
2023-05-15T04:31:22.439Z,29.59
2023-05-15T04:32:22.561Z,30.33
2023-05-15T04:33:22.487Z,31.58
2023-05-15T04:34:22.545Z,28.65
2023-05-15T04:35:22.682Z,31.21
2023-05-15T04:36:22.672Z,33.24
2023-05-15T04:37:22.686Z,28.76
2023-05-15T04:38:22.740Z,27.19
2023-05-15T04:39:22.768Z,31.27
2023-05-15T04:40:22.821Z,29.16
2023-05-15T04:41:22.895Z,32.22
2023-05-15T04:42:22.930Z,26.81
2023-05-15T04:43:22.984Z,25.01
2023-05-15T04:44:23.055Z,30.95
2023-05-15T04:45:23.261Z,29.12
2023-05-15T04:46:23.161Z,28.52
2023-05-15T04:47:23.190Z,29.53
2023-05-15T04:48:23.235Z,31.38
2023-05-15T04:49:23.273Z,30.06
2023-05-15T04:50:23.555Z,32.15
2023-05-15T04:51:23.373Z,31.83
2023-05-15T04:52:23.434Z,29.70
2023-05-15T04:53:23.481Z,29.93
2023-05-15T04:54:23.528Z,31.03
2023-05-15T04:55:23.811Z,30.37
2023-05-15T04:56:23.639Z,29.68
2023-05-15T04:57:23.721Z,32.60
2023-05-15T04:58:23.779Z,29.64
2023-05-15T04:59:23.798Z,30.78
2023-05-15T05:00:23.940Z,30.53
2023-05-15T05:01:23.940Z,30.30
2023-05-15T05:02:23.980Z,31.10
2023-05-15T05:03:24.027Z,28.76
2023-05-15T05:04:24.060Z,26.43
2023-05-15T05:05:24.321Z,27.35
2023-05-15T05:06:24.174Z,25.85
2023-05-15T05:07:24.217Z,30.02
2023-05-15T05:08:24.261Z,28.52
2023-05-15T05:09:24.337Z,28.90
2023-05-15T05:10:24.367Z,28.90
2023-05-15T05:11:24.654Z,28.65
2023-05-15T05:12:25.914Z,27.09
2023-05-15T05:13:24.488Z,29.84
2023-05-15T05:14:24.494Z,30.24
2023-05-15T05:15:24.690Z,28.17
2023-05-15T05:16:24.460Z,29.86
2023-05-15T05:17:24.486Z,28.18
2023-05-15T05:18:24.452Z,26.63
2023-05-15T05:19:24.448Z,27.73
2023-05-15T05:20:24.491Z,28.11
2023-05-15T05:21:24.426Z,26.55
2023-05-15T05:22:24.415Z,25.02
2023-05-15T05:23:24.394Z,27.98
2023-05-15T05:24:24.386Z,32.40
2023-05-15T05:25:24.537Z,27.12
2023-05-15T05:26:24.377Z,31.95
2023-05-15T05:27:24.763Z,30.95
2023-05-15T05:28:24.352Z,29.61
2023-05-15T05:29:24.376Z,27.60
2023-05-15T05:30:24.355Z,29.20
2023-05-15T05:31:24.359Z,33.74
2023-05-15T05:32:24.837Z,32.48
2023-05-15T05:33:24.336Z,29.54
2023-05-15T05:34:25.341Z,36.51
2023-05-15T05:35:24.578Z,36.99
2023-05-15T05:36:24.350Z,40.61
2023-05-15T05:37:24.778Z,44.68
2023-05-15T05:38:24.272Z,47.00
2023-05-15T05:39:24.259Z,50.73
2023-05-15T05:40:24.347Z,59.99
2023-05-15T05:41:24.260Z,66.45
2023-05-15T05:42:24.252Z,72.67
2023-05-15T05:43:24.246Z,81.43
2023-05-15T05:44:24.221Z,91.72
2023-05-15T05:45:24.450Z,95.78
2023-05-15T05:46:24.234Z,96.86
2023-05-15T05:47:24.225Z,105.68
2023-05-15T05:48:24.267Z,112.52
2023-05-15T05:49:24.212Z,115.25
2023-05-15T05:50:24.253Z,124.91
2023-05-15T05:51:24.191Z,129.53
2023-05-15T05:52:24.196Z,129.94
2023-05-15T05:53:24.175Z,134.61
2023-05-15T05:54:24.157Z,144.39
2023-05-15T05:55:24.318Z,158.50
2023-05-15T05:56:24.189Z,164.41
2023-05-15T05:57:24.292Z,170.20
2023-05-15T05:58:25.940Z,172.31
2023-05-15T05:59:24.269Z,179.44
2023-05-15T06:00:24.282Z,187.08
2023-05-15T06:01:24.344Z,189.82
2023-05-15T06:02:24.404Z,193.09
2023-05-15T06:03:24.437Z,198.13
2023-05-15T06:04:24.395Z,205.15
2023-05-15T06:05:24.680Z,206.64
2023-05-15T06:06:24.474Z,211.59
2023-05-15T06:07:24.548Z,219.49
2023-05-15T06:08:24.599Z,226.34
2023-05-15T06:09:24.721Z,229.78
2023-05-15T06:10:24.867Z,233.14
2023-05-15T06:11:25.651Z,238.97
2023-05-15T06:12:24.908Z,241.12
2023-05-15T06:13:24.963Z,245.46
2023-05-15T06:14:24.954Z,248.46
2023-05-15T06:15:25.225Z,248.64
2023-05-15T06:16:25.166Z,250.00
2023-05-15T06:17:25.189Z,247.89
2023-05-15T06:18:25.265Z,250.00
2023-05-15T06:19:25.184Z,247.99
2023-05-15T06:20:25.491Z,250.00
2023-05-15T06:21:25.253Z,246.89
2023-05-15T06:22:25.310Z,244.11
2023-05-15T06:23:25.334Z,239.91
2023-05-15T06:24:25.378Z,239.50
2023-05-15T06:25:25.432Z,240.05
2023-05-15T06:26:25.474Z,235.25
2023-05-15T06:27:25.520Z,226.93
2023-05-15T06:28:25.667Z,214.48
2023-05-15T06:29:25.634Z,205.29
2023-05-15T06:30:25.997Z,203.43
2023-05-15T06:31:25.929Z,198.48
2023-05-15T06:32:25.892Z,184.13
2023-05-15T06:33:25.905Z,171.91
2023-05-15T06:34:25.942Z,168.37
2023-05-15T06:35:26.016Z,158.24
2023-05-15T06:36:26.087Z,146.87
2023-05-15T06:37:26.362Z,134.01
2023-05-15T06:38:26.170Z,131.17
2023-05-15T06:39:26.216Z,130.03
2023-05-15T06:40:26.534Z,122.03
2023-05-15T06:41:26.348Z,118.92
2023-05-15T06:42:26.363Z,112.30
2023-05-15T06:43:26.401Z,103.75
2023-05-15T06:44:26.435Z,101.74
2023-05-15T06:45:26.645Z,97.79
2023-05-15T06:46:26.541Z,96.26
2023-05-15T06:47:26.578Z,94.94
2023-05-15T06:48:26.648Z,95.60
2023-05-15T06:49:26.720Z,94.26
2023-05-15T06:50:26.843Z,95.57
2023-05-15T06:51:26.808Z,93.66
2023-05-15T06:52:26.785Z,86.96
2023-05-15T06:53:26.847Z,81.13
2023-05-15T06:54:26.778Z,79.63
2023-05-15T06:55:27.008Z,75.25
2023-05-15T06:56:26.848Z,78.98
2023-05-15T06:57:26.830Z,74.52
2023-05-15T06:58:26.820Z,67.32
2023-05-15T06:59:26.809Z,65.22
2023-05-15T07:00:26.843Z,63.10
2023-05-15T07:01:26.883Z,62.02
2023-05-15T07:02:26.919Z,57.16
2023-05-15T07:03:26.961Z,54.16
2023-05-15T07:04:27.014Z,49.38
2023-05-15T07:05:27.234Z,52.73
2023-05-15T07:06:27.039Z,52.32
2023-05-15T07:07:27.122Z,51.62
2023-05-15T07:08:27.214Z,55.44
2023-05-15T07:09:27.216Z,51.02
2023-05-15T07:10:27.517Z,52.00
2023-05-15T07:11:27.215Z,50.27
2023-05-15T07:12:27.195Z,48.44
2023-05-15T07:13:27.213Z,48.04
2023-05-15T07:14:27.195Z,48.58
2023-05-15T07:15:27.191Z,51.56
2023-05-15T07:16:27.275Z,59.44
2023-05-15T07:17:27.350Z,59.61
2023-05-15T07:18:27.411Z,63.15
2023-05-15T07:19:27.339Z,61.36
2023-05-15T07:20:31.012Z,62.43
2023-05-15T07:21:28.316Z,62.47
2023-05-15T07:22:27.254Z,56.67
2023-05-15T07:23:27.229Z,57.60
2023-05-15T07:24:27.229Z,62.38
2023-05-15T07:25:27.500Z,55.41
2023-05-15T07:26:34.295Z,60.50
2023-05-15T07:27:28.256Z,60.70
2023-05-15T07:28:27.211Z,61.85
2023-05-15T07:29:27.188Z,63.43
2023-05-15T07:30:27.405Z,62.21
2023-05-15T07:31:27.188Z,58.92
2023-05-15T07:32:27.178Z,57.16
2023-05-15T07:33:27.154Z,59.22
2023-05-15T07:34:27.169Z,71.01
2023-05-15T07:35:27.523Z,78.66
2023-05-15T07:36:27.287Z,81.26
2023-05-15T07:37:27.175Z,81.13
2023-05-15T07:38:27.164Z,88.62
2023-05-15T07:39:27.169Z,97.71
2023-05-15T07:40:27.119Z,104.51
2023-05-15T07:41:27.096Z,104.42
2023-05-15T07:42:27.124Z,112.15
2023-05-15T07:43:27.216Z,114.32
2023-05-15T07:44:27.298Z,119.24
2023-05-15T07:45:27.727Z,123.59
2023-05-15T07:46:27.446Z,131.24
2023-05-15T07:47:27.494Z,135.86
2023-05-15T07:48:27.515Z,141.62
2023-05-15T07:49:27.569Z,147.03
2023-05-15T07:50:27.610Z,148.38
2023-05-15T07:51:27.666Z,154.05
2023-05-15T07:52:27.755Z,159.75
2023-05-15T07:53:27.775Z,162.20
2023-05-15T07:54:27.787Z,167.92
2023-05-15T07:55:27.923Z,169.00
2023-05-15T07:56:27.905Z,176.27
2023-05-15T07:57:27.930Z,181.75
2023-05-15T07:58:27.961Z,186.10
2023-05-15T07:59:28.024Z,187.12
2023-05-15T08:00:28.025Z,191.05
2023-05-15T08:01:28.695Z,196.04
2023-05-15T08:02:28.266Z,198.98
2023-05-15T08:03:28.159Z,202.69
2023-05-15T08:04:28.165Z,202.90
2023-05-15T08:05:28.287Z,208.12
2023-05-15T08:06:28.209Z,211.44
2023-05-15T08:07:28.236Z,216.22
2023-05-15T08:08:28.364Z,217.44
2023-05-15T08:09:28.257Z,216.62
2023-05-15T08:10:28.277Z,221.33
2023-05-15T08:11:28.293Z,224.50
2023-05-15T08:12:28.360Z,233.61
2023-05-15T08:13:28.345Z,235.91
2023-05-15T08:14:28.420Z,234.89
2023-05-15T08:15:28.365Z,236.63
2023-05-15T08:16:28.574Z,244.06
2023-05-15T08:17:28.469Z,248.20
2023-05-15T08:18:28.472Z,245.46
2023-05-15T08:19:28.447Z,250.00
2023-05-15T08:20:28.484Z,248.76
2023-05-15T08:21:28.487Z,246.86
2023-05-15T08:22:28.514Z,200.75
2023-05-15T08:23:28.513Z,173.86
2023-05-15T08:24:28.561Z,150.33
2023-05-15T08:25:28.600Z,136.37
2023-05-15T08:26:28.623Z,109.37
2023-05-15T08:27:28.818Z,92.60
2023-05-15T08:28:28.688Z,80.69
2023-05-15T08:29:28.712Z,74.45
2023-05-15T08:30:28.772Z,70.16
2023-05-15T08:31:28.846Z,52.96
2023-05-15T08:32:29.324Z,54.46
2023-05-15T08:33:28.894Z,49.21
2023-05-15T08:34:28.965Z,34.01
2023-05-15T08:35:29.076Z,31.22
2023-05-15T08:36:29.064Z,38.40
2023-05-15T08:37:29.142Z,38.20
2023-05-15T08:38:29.176Z,54.84
2023-05-15T08:39:29.220Z,40.37
2023-05-15T08:41:39.930Z,47.47
2023-05-15T08:42:31.345Z,47.87
2023-05-15T08:43:29.296Z,0.00
2023-05-15T08:44:29.269Z,0.00
2023-05-15T08:45:29.256Z,0.00
2023-05-15T08:46:29.313Z,0.00
2023-05-15T08:47:29.298Z,0.00
2023-05-15T08:48:29.393Z,0.00
2023-05-15T08:49:29.227Z,0.00
2023-05-15T08:50:29.246Z,9.96
2023-05-15T08:51:29.227Z,26.81
2023-05-15T08:52:29.245Z,34.91
2023-05-15T08:53:29.280Z,13.83
2023-05-15T08:54:29.195Z,27.53
2023-05-15T08:55:29.212Z,36.11
2023-05-15T08:56:29.192Z,48.55
2023-05-15T08:57:29.211Z,43.12
2023-05-15T08:58:29.166Z,32.31
2023-05-15T08:59:29.158Z,39.18
2023-05-15T09:00:29.134Z,27.22
2023-05-15T09:01:29.162Z,20.42
2023-05-15T09:02:29.173Z,33.04
2023-05-15T09:03:29.182Z,30.37
2023-05-15T09:04:29.140Z,27.82
2023-05-15T09:05:29.108Z,29.17
2023-05-15T09:06:29.128Z,46.07
2023-05-15T09:07:29.094Z,62.74
2023-05-15T09:08:29.120Z,62.34
2023-05-15T09:09:29.073Z,50.42
2023-05-15T09:10:29.085Z,26.11
2023-05-15T09:11:29.069Z,43.01
2023-05-15T09:12:29.096Z,26.26
2023-05-15T09:13:29.050Z,27.98
2023-05-15T09:14:29.053Z,23.60
2023-05-15T09:15:29.122Z,29.51
2023-05-15T09:16:29.085Z,33.59
2023-05-15T09:17:29.063Z,46.55
2023-05-15T09:18:29.073Z,75.68
2023-05-15T09:19:29.017Z,75.85
2023-05-15T09:20:29.034Z,82.25
2023-05-15T09:21:29.018Z,98.97
2023-05-15T09:22:28.972Z,100.48
2023-05-15T09:23:28.970Z,106.77
2023-05-15T09:24:28.956Z,114.99
2023-05-15T09:25:28.958Z,113.64
2023-05-15T09:26:28.945Z,114.37
2023-05-15T09:27:28.940Z,102.18
2023-05-15T09:28:28.940Z,111.34
2023-05-15T09:29:28.943Z,114.77
2023-05-15T09:30:28.931Z,108.04
2023-05-15T09:31:28.980Z,117.23
2023-05-15T09:32:28.934Z,123.98
2023-05-15T09:33:29.334Z,125.67
2023-05-15T09:34:28.884Z,130.75
2023-05-15T09:35:28.989Z,123.98
2023-05-15T09:36:28.868Z,121.35
2023-05-15T09:37:28.883Z,124.74
2023-05-15T09:38:28.889Z,126.21
2023-05-15T09:39:28.934Z,119.33
2023-05-15T09:40:29.029Z,107.38
2023-05-15T09:41:29.030Z,103.10
2023-05-15T09:42:29.109Z,97.74
2023-05-15T09:43:29.201Z,101.40
2023-05-15T09:44:29.267Z,112.19
2023-05-15T09:45:29.302Z,118.40
2023-05-15T09:46:29.529Z,128.75
2023-05-15T09:47:29.600Z,132.86
2023-05-15T09:48:29.515Z,141.96
2023-05-15T09:49:30.984Z,147.05
2023-05-15T09:50:29.632Z,152.40
2023-05-15T09:51:29.653Z,151.80
2023-05-15T09:52:29.717Z,157.65
2023-05-15T09:53:29.842Z,160.83
2023-05-15T09:54:29.812Z,162.54
2023-05-15T09:55:29.874Z,161.44
2023-05-15T09:56:29.889Z,163.73
2023-05-15T09:57:29.921Z,164.87
2023-05-15T09:58:29.974Z,165.05
2023-05-15T09:59:30.007Z,166.33
2023-05-15T10:00:31.976Z,171.10
2023-05-15T10:01:30.187Z,156.11
2023-05-15T10:02:30.226Z,161.79
2023-05-15T10:03:30.224Z,162.14
2023-05-15T10:04:30.277Z,163.23
2023-05-15T10:05:42.439Z,169.36
2023-05-15T10:06:31.267Z,169.63
2023-05-15T10:07:30.269Z,171.25
2023-05-15T10:08:30.266Z,174.53
2023-05-15T10:09:30.252Z,179.40
2023-05-15T10:10:30.246Z,188.74
2023-05-15T10:11:30.234Z,191.78
2023-05-15T10:12:30.256Z,194.05
2023-05-15T10:13:30.252Z,195.53
2023-05-15T10:14:30.264Z,199.18
2023-05-15T10:15:30.228Z,199.65
2023-05-15T10:16:30.241Z,200.92
2023-05-15T10:17:30.211Z,203.70
2023-05-15T10:18:30.231Z,205.54
2023-05-15T10:19:30.181Z,208.39
2023-05-15T10:20:30.192Z,210.69
2023-05-15T10:21:30.167Z,216.92
2023-05-15T10:22:30.158Z,217.74
2023-05-15T10:23:30.156Z,215.26
2023-05-15T10:24:30.180Z,217.45
2023-05-15T10:25:30.136Z,220.00
2023-05-15T10:26:30.143Z,222.73
2023-05-15T10:27:30.143Z,222.76
2023-05-15T10:28:30.365Z,219.64
2023-05-15T10:29:30.103Z,221.65
2023-05-15T10:30:30.149Z,219.92
2023-05-15T10:31:30.159Z,222.60
2023-05-15T10:32:30.899Z,223.01
2023-05-15T10:33:30.156Z,223.37
2023-05-15T10:34:30.090Z,222.69
2023-05-15T10:35:30.093Z,221.94
2023-05-15T10:36:30.144Z,222.74
2023-05-15T10:37:30.055Z,224.07
2023-05-15T10:38:30.065Z,225.17
2023-05-15T10:39:30.071Z,224.88
2023-05-15T10:40:30.107Z,224.89
2023-05-15T10:41:30.106Z,224.23
2023-05-15T10:42:30.140Z,224.68
2023-05-15T10:43:30.188Z,227.41
2023-05-15T10:44:30.201Z,223.78
2023-05-15T10:45:30.219Z,224.31
2023-05-15T10:46:30.302Z,225.52
2023-05-15T10:47:30.283Z,225.86
2023-05-15T10:48:30.393Z,225.05
2023-05-15T10:49:30.329Z,225.06
2023-05-15T10:50:30.342Z,225.58
2023-05-15T10:51:30.375Z,225.02
2023-05-15T10:52:30.414Z,224.31
2023-05-15T10:53:30.443Z,224.65
2023-05-15T10:54:30.528Z,223.66
2023-05-15T10:55:30.467Z,226.51
2023-05-15T10:56:30.694Z,222.98
2023-05-15T10:57:30.583Z,223.61
2023-05-15T10:58:30.577Z,222.77
2023-05-15T10:59:30.651Z,225.38
2023-05-15T11:00:30.702Z,222.78
2023-05-15T11:01:30.812Z,223.02
2023-05-15T11:02:30.814Z,223.63
2023-05-15T11:03:41.274Z,222.02
2023-05-15T11:04:31.874Z,222.08
2023-05-15T11:05:30.852Z,222.16
2023-05-15T11:06:30.783Z,222.93
2023-05-15T11:07:30.811Z,223.08
2023-05-15T11:08:30.766Z,222.96
2023-05-15T11:09:30.853Z,221.71
2023-05-15T11:10:30.774Z,223.10
2023-05-15T11:11:30.752Z,222.74
2023-05-15T11:12:30.787Z,222.63
2023-05-15T11:13:30.782Z,220.66
2023-05-15T11:14:30.824Z,221.35
2023-05-15T11:15:30.894Z,219.54
2023-05-15T11:16:30.972Z,219.64
2023-05-15T11:17:31.061Z,218.46
2023-05-15T11:18:31.088Z,212.43
2023-05-15T11:19:31.100Z,214.49
2023-05-15T11:20:31.154Z,217.26
2023-05-15T11:21:31.232Z,215.28
2023-05-15T11:22:31.280Z,215.80
2023-05-15T11:23:31.377Z,214.85
2023-05-15T11:24:31.886Z,213.20
2023-05-15T11:25:31.443Z,213.55
2023-05-15T11:26:31.497Z,214.03
2023-05-15T11:27:31.555Z,213.96
2023-05-15T11:28:31.791Z,214.96
2023-05-15T11:29:31.892Z,215.83
2023-05-15T11:30:31.767Z,216.62
2023-05-15T11:31:31.875Z,216.69
2023-05-15T11:32:31.959Z,217.63
2023-05-15T11:33:31.985Z,218.20
2023-05-15T11:34:32.001Z,218.59
2023-05-15T11:35:32.063Z,218.50
2023-05-15T11:36:32.118Z,219.28
2023-05-15T11:37:32.194Z,219.37
2023-05-15T11:38:32.257Z,220.25
2023-05-15T11:39:32.323Z,221.16
2023-05-15T11:40:32.400Z,220.98
2023-05-15T11:41:32.459Z,221.79
2023-05-15T11:42:32.520Z,221.74
2023-05-15T11:43:32.579Z,221.05
2023-05-15T11:44:32.646Z,222.12
2023-05-15T11:45:32.719Z,221.59
2023-05-15T11:46:32.827Z,222.79
2023-05-15T11:47:32.863Z,223.58
2023-05-15T11:48:32.902Z,222.23
2023-05-15T11:49:32.961Z,223.40
2023-05-15T11:50:33.025Z,223.82
2023-05-15T11:51:33.082Z,224.81
2023-05-15T11:52:33.226Z,223.15
2023-05-15T11:53:33.215Z,224.42
2023-05-15T11:54:33.278Z,223.61
2023-05-15T11:55:33.328Z,224.58
2023-05-15T11:56:33.416Z,224.19
2023-05-15T11:57:33.458Z,224.50
2023-05-15T11:58:33.532Z,223.43
2023-05-15T11:59:33.583Z,224.77
2023-05-15T12:00:33.650Z,224.06
2023-05-15T12:01:33.712Z,223.61
2023-05-15T12:02:33.826Z,223.85
2023-05-15T12:03:34.001Z,224.42
2023-05-15T12:04:33.917Z,224.29
2023-05-15T12:05:33.964Z,223.63
2023-05-15T12:06:34.026Z,222.60
2023-05-15T12:07:34.108Z,224.11
2023-05-15T12:08:34.127Z,223.18
2023-05-15T12:09:34.177Z,224.09
2023-05-15T12:10:34.252Z,222.75
2023-05-15T12:11:34.304Z,223.45
2023-05-15T12:12:34.354Z,222.19
2023-05-15T12:13:34.421Z,223.00
2023-05-15T12:14:34.465Z,222.83
2023-05-15T12:15:34.542Z,222.27
2023-05-15T12:16:34.654Z,224.44
2023-05-15T12:17:34.693Z,222.14
2023-05-15T12:18:34.756Z,223.07
2023-05-15T12:19:34.769Z,222.59
2023-05-15T12:20:34.850Z,222.43
2023-05-15T12:21:36.490Z,224.29
2023-05-15T12:22:34.900Z,222.76
2023-05-15T12:23:34.930Z,226.06
2023-05-15T12:24:34.882Z,226.49
2023-05-15T12:25:34.844Z,228.68
2023-05-15T12:26:34.879Z,228.84
2023-05-15T12:27:34.855Z,232.31
2023-05-15T12:28:34.839Z,233.23
2023-05-15T12:29:34.830Z,236.46
2023-05-15T12:30:34.828Z,240.16
2023-05-15T12:31:34.898Z,239.43
2023-05-15T12:32:34.807Z,242.30
2023-05-15T12:33:34.802Z,243.89
2023-05-15T12:34:34.800Z,248.57
2023-05-15T12:35:34.789Z,248.32
2023-05-15T12:36:34.786Z,249.21
2023-05-15T12:37:34.783Z,250.00
2023-05-15T12:38:34.800Z,249.87
2023-05-15T12:39:34.760Z,247.81
2023-05-15T12:40:34.750Z,249.59
2023-05-15T12:41:34.750Z,250.22
2023-05-15T12:42:34.745Z,250.00
2023-05-15T12:43:34.756Z,249.70
2023-05-15T12:44:34.733Z,248.83